Time;durP1;ratioP1;P1;durP2;ratioP2;P2;SDS_P1;SDS_P2;PMS_P1;PMS_P2;Temp;Humidity;BMP_temperature;BMP_pressure;BME280_temperature;BME280_humidity;BME280_pressure;Samples;Min_cycle;Max_cycle;Signal;HPM_P1;HPM_P2
2022/12/31 00:01:45;;;;;;;22.65;4.95;;;12.10;99.90;;;12.10;100.00;100040.47;4942016;28;20299;-67
2022/12/31 00:04:12;;;;;;;23.17;4.85;;;12.10;99.90;;;12.07;100.00;100037.84;4916743;28;20237;-68
2022/12/31 00:06:39;;;;;;;28.77;6.38;;;12.00;99.90;;;12.06;100.00;100045.78;4928242;28;20289;-67
2022/12/31 00:09:07;;;;;;;10.10;2.35;;;12.00;99.90;;;12.02;100.00;100033.44;4926494;28;20260;-67
2022/12/31 00:11:36;;;;;;;23.30;5.13;;;12.00;99.90;;;12.10;100.00;100029.88;4923938;28;20665;-68
2022/12/31 00:14:04;;;;;;;25.58;5.72;;;12.00;99.90;;;12.08;100.00;100014.84;4943228;28;20249;-67
2022/12/31 00:16:36;;;;;;;22.02;4.75;;;12.10;99.90;;;12.07;100.00;100024.59;4943113;28;20230;-67
2022/12/31 00:19:07;;;;;;;12.55;2.67;;;12.00;99.90;;;12.09;100.00;100027.22;4925396;28;20248;-69
2022/12/31 00:21:36;;;;;;;22.27;4.82;;;12.00;99.90;;;12.09;100.00;100025.47;4930410;28;20241;-67
2022/12/31 00:24:05;;;;;;;19.50;4.57;;;12.00;99.90;;;12.09;100.00;100025.47;4940021;28;20268;-69
2022/12/31 00:26:34;;;;;;;11.82;2.58;;;12.10;99.90;;;12.07;100.00;100018.41;4943596;28;20257;-69
2022/12/31 00:29:02;;;;;;;20.88;4.45;;;12.00;99.90;;;12.11;100.00;100023.69;4939124;28;20630;-68
2022/12/31 00:31:36;;;;;;;32.08;7.40;;;12.10;99.90;;;12.12;100.00;100019.25;4934806;28;20288;-68
2022/12/31 00:34:04;;;;;;;21.55;4.80;;;12.10;99.90;;;12.10;100.00;100010.44;4919346;28;20233;-68
2022/12/31 00:36:37;;;;;;;27.05;5.70;;;12.10;99.90;;;12.10;100.00;100024.56;4923332;28;20226;-67
2022/12/31 00:39:07;;;;;;;24.02;5.30;;;12.10;99.90;;;12.14;100.00;100025.44;4926321;28;20237;-69
2022/12/31 00:41:34;;;;;;;20.75;4.32;;;12.10;99.90;;;12.17;100.00;100034.25;4943453;28;20249;-68
2022/12/31 00:44:02;;;;;;;22.48;4.57;;;12.10;99.90;;;12.23;100.00;100046.59;4931534;29;20244;-69
2022/12/31 00:46:30;;;;;;;41.47;8.40;;;12.10;99.90;;;12.24;100.00;100051.03;4947213;28;20226;-72
2022/12/31 00:48:57;;;;;;;23.08;4.82;;;12.20;99.90;;;12.26;100.00;100043.94;4930112;28;20242;-71
2022/12/31 00:51:26;;;;;;;31.27;6.63;;;12.20;99.90;;;12.31;100.00;100060.72;4925964;28;20261;-69
2022/12/31 00:53:55;;;;;;;43.13;9.05;;;12.30;99.90;;;12.31;100.00;100060.72;4929036;28;20321;-70
2022/12/31 00:56:27;;;;;;;13.05;2.90;;;12.20;99.90;;;12.33;100.00;100053.63;4928908;28;20242;-69
2022/12/31 00:58:55;;;;;;;24.83;5.18;;;12.30;99.90;;;12.34;100.00;100062.47;4928185;28;20258;-70
2022/12/31 01:01:32;;;;;;;24.63;5.13;;;12.30;99.90;;;12.37;100.00;100068.66;4945895;28;20284;-71
2022/12/31 01:04:12;;;;;;;38.13;7.70;;;12.30;99.90;;;12.40;100.00;100076.59;4931674;29;20241;-70
2022/12/31 01:06:40;;;;;;;26.77;5.68;;;12.40;99.90;;;12.49;100.00;100088.94;4926734;28;20221;-69
2022/12/31 01:09:08;;;;;;;32.75;7.03;;;12.40;99.90;;;12.48;100.00;100100.44;4927818;28;20316;-69
2022/12/31 01:11:36;;;;;;;45.08;9.50;;;12.40;99.90;;;12.52;100.00;100106.59;4940222;28;20230;-70
2022/12/31 01:14:14;;;;;;;26.02;5.40;;;12.50;99.90;;;12.59;100.00;100113.63;4943861;28;20304;-71
2022/12/31 01:16:50;;;;;;;27.77;5.88;;;12.50;99.90;;;12.58;100.00;100107.44;4940621;28;20230;-71
2022/12/31 01:19:26;;;;;;;27.77;5.80;;;12.50;99.90;;;12.59;100.00;100114.53;4926081;28;20237;-69
2022/12/31 01:21:55;;;;;;;27.13;5.65;;;12.50;99.90;;;12.56;100.00;100129.56;4929071;28;20300;-70
2022/12/31 01:24:22;;;;;;;16.02;3.53;;;12.50;99.90;;;12.54;100.00;100126.91;4942663;28;20246;-69
2022/12/31 01:26:50;;;;;;;24.27;4.95;;;12.50;99.90;;;12.59;100.00;100148.13;4942501;28;20300;-69
2022/12/31 01:29:18;;;;;;;20.60;4.47;;;12.50;99.90;;;12.67;100.00;100152.50;4926010;28;20233;-69
2022/12/31 01:31:45;;;;;;;26.70;5.63;;;12.50;99.90;;;12.62;100.00;100154.31;4931590;28;20628;-69
2022/12/31 01:34:12;;;;;;;32.47;6.85;;;12.50;99.90;;;12.63;100.00;100160.50;4928390;28;20230;-71
2022/12/31 01:36:39;;;;;;;29.17;6.45;;;12.60;99.90;;;12.66;100.00;100164.00;4945944;28;20353;-70
2022/12/31 01:39:08;;;;;;;31.05;6.53;;;12.60;99.90;;;12.72;100.00;100179.03;4930076;28;20240;-69
2022/12/31 01:41:39;;;;;;;26.25;5.65;;;12.60;99.90;;;12.65;100.00;100174.63;4928840;28;20249;-69
2022/12/31 01:44:12;;;;;;;23.15;4.70;;;12.60;99.90;;;12.73;100.00;100180.78;4945964;28;20237;-69
2022/12/31 01:46:51;;;;;;;30.55;6.65;;;12.60;99.90;;;12.72;100.00;100171.94;4943563;28;20321;-71
2022/12/31 01:49:40;;;;;;;29.10;6.25;;;12.70;99.90;;;13.03;100.00;100198.38;4949832;28;20320;-69
2022/12/31 01:52:11;;;;;;;18.02;4.10;;;12.80;99.90;;;13.02;100.00;100199.28;4941533;28;20289;-69
2022/12/31 01:54:45;;;;;;;25.58;5.28;;;12.90;99.90;;;12.99;100.00;100189.53;4945480;28;20297;-69
2022/12/31 01:57:14;;;;;;;25.63;5.28;;;13.00;99.90;;;13.50;100.00;100222.06;4944263;28;20686;-68
2022/12/31 01:59:43;;;;;;;24.00;5.03;;;13.30;99.90;;;14.14;100.00;100253.47;4941360;28;20269;-68
2022/12/31 02:02:12;;;;;;;21.58;4.70;;;14.00;99.90;;;13.49;100.00;100209.66;4929970;28;20241;-69
2022/12/31 02:04:39;;;;;;;36.92;8.05;;;13.60;99.90;;;13.13;100.00;100205.41;4926699;28;20238;-69
2022/12/31 02:07:12;;;;;;;33.88;7.28;;;13.20;99.90;;;13.08;100.00;100201.91;4935452;28;20240;-69
2022/12/31 02:09:42;;;;;;;25.48;5.75;;;13.00;99.90;;;13.31;100.00;100204.47;4924134;28;20232;-69
2022/12/31 02:12:10;;;;;;;32.85;7.05;;;13.20;99.90;;;13.27;100.00;100190.31;4940765;28;20253;-69
2022/12/31 02:14:42;;;;;;;29.95;6.30;;;13.30;99.90;;;13.16;100.00;100189.47;4927686;28;20658;-69
2022/12/31 02:17:24;;;;;;;19.58;4.32;;;13.10;99.90;;;13.20;100.00;100177.09;4924876;28;20257;-70
2022/12/31 02:20:31;;;;;;;23.98;4.90;;;13.20;99.90;;;13.06;100.00;100164.75;4943684;28;20238;-70
2022/12/31 02:23:21;;;;;;;24.23;5.13;;;13.00;99.90;;;13.05;100.00;100165.63;4945169;28;20339;-70
2022/12/31 02:26:21;;;;;;;25.20;5.40;;;13.00;99.90;;;13.08;100.00;100175.34;4964092;28;20241;-69
2022/12/31 02:29:11;;;;;;;24.35;5.05;;;13.00;99.90;;;13.24;100.00;100185.03;4946244;28;20274;-69
2022/12/31 02:32:14;;;;;;;28.65;6.25;;;13.20;99.90;;;13.22;100.00;100197.44;4945955;28;20230;-70
2022/12/31 02:34:56;;;;;;;36.50;8.85;;;13.10;99.90;;;13.57;100.00;100220.25;4907822;28;20305;-69
2022/12/31 02:37:26;;;;;;;29.63;6.50;;;13.40;99.90;;;14.03;100.00;100234.06;4947956;28;20234;-68
2022/12/31 02:39:53;;;;;;;25.95;5.20;;;13.80;99.90;;;13.93;100.00;100219.09;4923903;28;20321;-68
2022/12/31 02:42:20;;;;;;;17.35;4.32;;;13.90;99.90;;;13.88;100.00;100197.84;4929771;28;20265;-69
2022/12/31 02:44:47;;;;;;;25.10;5.28;;;13.80;99.90;;;13.78;100.00;100182.88;4956676;28;20640;-69
2022/12/31 02:47:34;;;;;;;22.58;4.80;;;13.70;99.90;;;13.55;100.00;100176.88;4926817;28;20309;-70
2022/12/31 02:51:01;;;;;;;24.67;5.32;;;13.60;99.90;;;13.55;100.00;100192.81;4946514;28;20272;-71
2022/12/31 02:54:03;;;;;;;33.67;6.93;;;13.50;99.90;;;13.85;100.00;100203.19;4906770;29;20277;-68
2022/12/31 02:56:48;;;;;;;20.98;4.25;;;13.70;99.90;;;13.94;100.00;100208.44;4930669;28;20371;-68
2022/12/31 03:02:27;;;;;;;25.23;5.40;;;13.90;99.90;;;13.99;100.00;100180.03;4946899;28;20669;-69
2022/12/31 03:04:56;;;;;;;26.63;5.97;;;14.00;99.90;;;14.29;100.00;100207.25;4923682;28;20230;-68
2022/12/31 03:07:27;;;;;;;29.33;6.32;;;14.20;99.90;;;14.10;100.00;100180.81;4926859;28;20283;-68
2022/12/31 03:09:54;;;;;;;21.20;4.78;;;14.10;99.90;;;14.16;100.00;100185.19;4940534;28;20233;-68
2022/12/31 03:12:47;;;;;;;43.78;9.73;;;14.10;99.90;;;14.06;100.00;100188.84;4921857;28;20284;-69
2022/12/31 03:15:30;;;;;;;26.73;6.03;;;14.00;99.90;;;14.21;100.00;100177.19;4944393;28;20239;-68
2022/12/31 03:18:08;;;;;;;17.65;3.83;;;14.10;99.90;;;14.27;100.00;100170.03;4943326;28;20313;-68
2022/12/31 03:23:37;;;;;;;26.48;5.38;;;14.20;99.90;;;14.27;100.00;100163.81;4939322;28;20293;-70
2022/12/31 03:26:10;;;;;;;27.55;5.75;;;14.20;99.90;;;14.24;100.00;100146.13;4943508;28;20232;-68
2022/12/31 03:28:40;;;;;;;42.25;9.43;;;14.20;99.90;;;14.25;100.00;100147.00;4924068;28;20245;-70
2022/12/31 03:31:07;;;;;;;22.38;4.75;;;14.20;99.90;;;14.35;100.00;100143.38;4950273;28;20784;-69
2022/12/31 03:33:39;;;;;;;16.45;3.75;;;14.20;99.90;;;14.03;100.00;100128.59;4944070;28;20238;-69
2022/12/31 03:36:12;;;;;;;19.05;3.95;;;14.10;99.90;;;13.88;100.00;100120.78;4945348;28;20230;-71
2022/12/31 03:38:40;;;;;;;24.67;5.30;;;13.80;99.90;;;13.83;100.00;100108.41;4937425;28;20690;-69
2022/12/31 03:41:10;;;;;;;20.80;4.72;;;13.80;99.90;;;14.06;100.00;100130.34;4929129;28;20316;-68
2022/12/31 03:43:37;;;;;;;26.90;5.70;;;13.90;99.90;;;14.36;100.00;100148.69;4925917;28;20238;-69
2022/12/31 03:46:04;;;;;;;22.17;4.68;;;14.20;99.90;;;14.15;100.00;100140.00;4929052;28;20233;-68
2022/12/31 03:48:32;;;;;;;46.20;10.05;;;14.10;99.90;;;13.98;100.00;100129.53;4946038;28;20245;-69
2022/12/31 03:50:59;;;;;;;45.95;9.80;;;13.90;99.90;;;13.93;100.00;100118.94;4937645;28;20253;-68
2022/12/31 03:53:27;;;;;;;18.98;4.22;;;13.90;99.90;;;14.52;100.00;100164.50;4926449;28;20237;-69
2022/12/31 03:55:54;;;;;;;38.75;8.30;;;14.30;99.90;;;14.55;100.00;100143.19;4926117;28;20257;-68
2022/12/31 03:58:21;;;;;;;24.05;5.68;;;14.50;99.90;;;14.56;100.00;100148.47;4931136;28;21057;-68
2022/12/31 04:00:49;;;;;;;28.35;6.30;;;14.50;99.90;;;14.67;100.00;100135.03;4928592;28;20284;-69
2022/12/31 04:03:16;;;;;;;25.35;5.60;;;14.60;99.90;;;14.44;100.00;100106.06;4933382;28;20296;-69
2022/12/31 04:05:43;;;;;;;32.65;6.80;;;14.40;99.90;;;14.17;100.00;100111.63;4943638;28;20292;-69
2022/12/31 04:08:10;;;;;;;31.30;7.32;;;14.10;99.90;;;14.66;100.00;100139.50;4936594;28;20261;-70
2022/12/31 04:10:37;;;;;;;43.78;9.65;;;14.50;99.90;;;14.84;100.00;100133.03;4941448;28;20289;-69
2022/12/31 04:13:04;;;;;;;25.38;5.60;;;14.70;99.90;;;14.80;100.00;100130.44;4928285;28;20238;-69
2022/12/31 04:15:31;;;;;;;24.30;5.10;;;14.70;99.90;;;14.84;100.00;100125.06;4931478;28;20963;-71
2022/12/31 04:17:58;;;;;;;41.03;8.70;;;14.80;99.90;;;15.37;100.00;100150.06;4936443;28;20265;-69
2022/12/31 04:20:25;;;;;;;37.55;8.15;;;15.20;99.90;;;15.29;100.00;100112.00;4924933;28;20245;-69
2022/12/31 04:22:52;;;;;;;27.13;5.57;;;15.20;99.90;;;15.27;100.00;100112.00;4944274;28;20241;-68
2022/12/31 04:25:19;;;;;;;26.65;5.70;;;15.20;99.90;;;15.33;100.00;100109.25;4925500;28;20309;-70
2022/12/31 04:27:46;;;;;;;26.33;5.78;;;15.20;99.90;;;15.19;100.00;100121.91;4928953;28;20313;-68
2022/12/31 04:30:13;;;;;;;17.92;4.03;;;15.10;99.90;;;15.23;100.00;100123.63;4927696;28;20234;-68
2022/12/31 04:32:40;;;;;;;19.17;4.13;;;15.20;99.90;;;14.96;100.00;100110.69;4943663;28;20698;-69
2022/12/31 04:35:09;;;;;;;15.63;3.25;;;14.90;99.90;;;14.90;100.00;100124.97;4943154;28;20233;-69
2022/12/31 04:37:36;;;;;;;26.02;5.40;;;14.80;99.90;;;14.89;100.00;100131.22;4923866;28;20360;-68
2022/12/31 04:40:04;;;;;;;24.50;5.00;;;14.80;99.90;;;14.76;100.00;100112.75;4927936;28;20329;-68
2022/12/31 04:42:34;;;;;;;35.15;7.13;;;14.70;99.90;;;14.87;100.00;100134.78;4935451;28;20233;-69
2022/12/31 04:45:01;;;;;;;21.58;4.25;;;14.70;99.90;;;14.76;100.00;100126.94;4926324;29;20242;-68
2022/12/31 04:47:28;;;;;;;31.52;6.80;;;14.70;99.90;;;14.96;100.00;100124.91;4924579;29;20221;-68
2022/12/31 04:49:55;;;;;;;25.00;5.13;;;14.80;99.90;;;14.88;100.00;100116.13;4932049;28;20231;-70
2022/12/31 04:52:22;;;;;;;29.45;6.38;;;14.80;99.90;;;14.83;100.00;100099.34;4940635;28;20304;-69
2022/12/31 04:54:49;;;;;;;27.05;5.68;;;14.80;99.90;;;15.03;100.00;100134.56;4927095;28;20237;-69
2022/12/31 04:57:16;;;;;;;35.85;7.63;;;14.90;99.90;;;15.04;100.00;100123.00;4924249;28;20242;-69
2022/12/31 04:59:43;;;;;;;24.05;5.05;;;14.90;99.90;;;15.28;100.00;100137.75;4930376;28;20709;-68
2022/12/31 05:02:10;;;;;;;21.90;4.93;;;15.20;99.90;;;15.33;100.00;100122.56;4927104;28;20256;-70
2022/12/31 05:04:37;;;;;;;12.00;2.88;;;15.20;99.90;;;15.41;100.00;100127.78;4933124;28;20234;-68
2022/12/31 05:07:04;;;;;;;20.90;4.25;;;15.30;99.90;;;15.52;100.00;100133.81;4924235;28;20238;-69
2022/12/31 05:09:31;;;;;;;20.00;4.22;;;15.40;99.90;;;15.47;100.00;100122.34;4931385;29;20236;-68
2022/12/31 05:11:58;;;;;;;22.05;4.57;;;15.40;99.90;;;15.45;100.00;100109.97;4926874;29;20253;-69
2022/12/31 05:14:25;;;;;;;10.10;2.13;;;15.40;99.90;;;15.23;100.00;100093.44;4926144;28;20260;-69
2022/12/31 05:16:53;;;;;;;21.73;4.78;;;15.20;99.90;;;15.55;100.00;100109.78;4941953;28;20296;-69
2022/12/31 05:19:20;;;;;;;20.90;4.72;;;15.40;99.90;;;15.74;99.07;100106.88;4942389;28;20244;-68
2022/12/31 05:22:27;;;;;;;21.25;4.63;;;15.60;99.90;;;15.78;98.15;100108.59;4930484;28;20241;-70
2022/12/31 05:24:34;;;;;;;18.90;4.45;;;15.60;99.90;;;15.80;97.42;100089.00;4942140;28;20225;-68
2022/12/31 05:27:02;;;;;;;20.17;4.40;;;15.70;99.90;;;15.91;96.06;100099.47;4928810;29;20329;-70
2022/12/31 05:29:29;;;;;;;21.70;5.03;;;15.80;99.90;;;15.60;97.04;100078.69;4926607;28;20334;-69
2022/12/31 05:31:56;;;;;;;29.73;6.45;;;15.60;99.90;;;16.05;95.52;100108.09;4923318;28;20316;-70
2022/12/31 05:34:22;;;;;;;13.48;3.13;;;15.90;99.90;;;15.74;95.75;100062.44;4929588;28;20238;-68
2022/12/31 05:36:50;;;;;;;20.50;4.50;;;15.80;99.90;;;15.30;98.10;100068.47;4927649;28;20296;-68
2022/12/31 05:39:17;;;;;;;26.52;6.00;;;15.30;99.90;;;15.16;99.92;100076.66;4921093;28;20316;-69
2022/12/31 05:41:44;;;;;;;28.77;6.45;;;15.10;99.90;;;15.30;99.72;100098.66;4938702;28;20581;-69
2022/12/31 05:44:11;;;;;;;27.42;5.63;;;15.20;99.90;;;15.01;100.00;100080.44;4942051;28;20261;-69
2022/12/31 05:46:38;;;;;;;22.95;4.97;;;15.00;99.90;;;15.03;100.00;100102.59;4935844;28;20222;-68
2022/12/31 05:49:05;;;;;;;17.77;3.95;;;15.00;99.90;;;15.58;100.00;100136.44;4928995;28;20230;-70
2022/12/31 05:51:32;;;;;;;20.08;3.97;;;15.30;99.90;;;15.75;98.88;100120.19;4927049;28;20250;-69
2022/12/31 05:53:59;;;;;;;23.25;4.70;;;15.60;99.90;;;15.47;98.93;100094.84;4943219;28;20293;-68
2022/12/31 05:56:26;;;;;;;21.50;4.35;;;15.40;99.90;;;15.28;99.93;100094.25;4948296;28;20253;-69
2022/12/31 05:58:54;;;;;;;28.45;5.93;;;15.20;99.90;;;15.53;99.35;100108.94;4925873;28;20273;-69
2022/12/31 06:01:21;;;;;;;26.23;5.53;;;15.40;99.90;;;15.83;97.08;100110.28;4932688;28;20253;-70
2022/12/31 06:03:48;;;;;;;25.58;5.38;;;15.70;99.90;;;15.76;96.68;100087.28;4926154;28;20241;-69
2022/12/31 06:06:15;;;;;;;28.67;6.10;;;15.60;99.90;;;15.49;97.79;100069.03;4930460;28;20230;-68
2022/12/31 06:08:42;;;;;;;30.90;6.38;;;15.50;99.90;;;15.33;98.91;100076.41;4929420;28;21061;-69
2022/12/31 06:11:09;;;;;;;28.35;6.00;;;15.30;99.90;;;15.41;98.98;100102.94;4933887;28;20230;-67
2022/12/31 06:13:36;;;;;;;35.75;7.40;;;15.30;99.90;;;15.14;100.00;100090.91;4932046;28;20308;-68
2022/12/31 06:16:07;;;;;;;29.13;6.30;;;15.10;99.90;;;15.11;100.00;100094.50;4924909;28;20242;-68
2022/12/31 06:18:34;;;;;;;27.60;6.10;;;15.10;99.90;;;15.21;100.00;100120.09;4944487;28;20430;-68
2022/12/31 06:21:02;;;;;;;26.85;5.38;;;15.10;99.90;;;15.72;99.24;100133.56;4929918;29;20260;-68
2022/12/31 06:23:30;;;;;;;31.38;6.68;;;15.40;99.90;;;15.58;98.67;100100.91;4939707;28;20703;-68
2022/12/31 06:26:02;;;;;;;29.85;5.97;;;15.50;99.90;;;15.64;97.84;100087.50;4943038;28;20281;-69
2022/12/31 06:28:29;;;;;;;23.05;5.35;;;15.50;99.90;;;15.60;97.21;100084.00;4924518;28;20723;-68
2022/12/31 06:31:05;;;;;;;16.45;3.70;;;15.50;99.90;;;15.38;97.83;100072.75;4927598;28;20250;-69
2022/12/31 06:33:33;;;;;;;63.33;13.45;;;15.40;99.90;;;15.67;96.26;100082.13;4944120;28;20225;-68
2022/12/31 06:36:05;;;;;;;53.45;11.15;;;15.60;99.90;;;15.53;96.95;100087.63;4924958;29;20233;-69
2022/12/31 06:38:36;;;;;;;47.25;9.27;;;15.40;99.90;;;15.54;96.45;100088.50;4924802;28;20238;-69
2022/12/31 06:41:05;;;;;;;34.88;6.93;;;15.50;99.90;;;15.46;96.75;100071.75;4943511;28;20237;-69
2022/12/31 06:43:36;;;;;;;26.08;5.20;;;15.40;99.90;;;15.41;96.81;100068.28;4930343;28;20241;-69
2022/12/31 06:46:07;;;;;;;20.95;4.85;;;15.30;99.90;;;15.32;97.03;100064.00;4927771;28;20237;-68
2022/12/31 06:48:34;;;;;;;28.50;5.93;;;15.30;99.90;;;15.08;98.54;100062.59;4930722;28;20248;-68
2022/12/31 06:51:11;;;;;;;40.15;7.90;;;15.10;99.90;;;15.13;98.98;100074.06;4936303;29;20560;-68
2022/12/31 06:53:45;;;;;;;30.35;6.15;;;15.10;99.90;;;15.40;96.84;100074.53;4934771;28;20234;-68
2022/12/31 06:56:23;;;;;;;26.00;5.22;;;15.20;99.90;;;15.43;95.99;100042.50;4928355;28;20714;-68
2022/12/31 06:58:59;;;;;;;24.38;5.15;;;15.30;99.90;;;15.42;94.94;100032.75;4946335;28;20237;-68
2022/12/31 07:01:38;;;;;;;24.88;4.93;;;15.40;99.90;;;15.54;94.08;100045.84;4932612;28;20242;-68
2022/12/31 07:04:29;;;;;;;22.35;4.63;;;15.40;99.90;;;15.35;94.31;100034.63;4937727;28;20313;-68
2022/12/31 07:07:07;;;;;;;26.15;5.20;;;15.30;99.90;;;15.37;94.25;100044.34;4949306;28;20304;-69
2022/12/31 07:09:53;;;;;;;38.92;8.15;;;15.30;99.90;;;15.34;93.84;100035.53;4943622;28;20226;-69
2022/12/31 07:12:35;;;;;;;25.83;5.43;;;15.30;99.90;;;14.82;97.44;100044.34;4947018;28;20327;-69
2022/12/31 07:15:35;;;;;;;7.30;1.58;;;14.90;99.90;;;14.72;99.79;100072.00;4947040;28;20233;-69
2022/12/31 07:18:22;;;;;;;21.90;4.35;;;14.70;99.90;;;14.79;100.00;100091.41;4948511;28;20242;-69
2022/12/31 07:20:49;;;;;;;21.13;4.25;;;14.70;99.90;;;14.67;100.00;100089.81;4942067;28;20302;-70
2022/12/31 07:23:17;;;;;;;25.90;5.72;;;14.60;99.90;;;14.64;100.00;100069.44;4928183;28;20277;-68
2022/12/31 07:26:02;;;;;;;25.67;5.28;;;14.60;99.90;;;14.53;100.00;100073.13;4937198;28;20230;-69
2022/12/31 07:29:11;;;;;;;24.63;4.88;;;14.50;99.90;;;14.40;100.00;100083.00;4936004;29;20241;-68
2022/12/31 07:31:46;;;;;;;21.27;4.57;;;14.30;99.90;;;14.40;100.00;100083.91;4935561;28;20257;-69
2022/12/31 07:34:36;;;;;;;25.63;5.28;;;14.40;99.90;;;14.36;100.00;100083.94;4947558;28;20791;-68
2022/12/31 07:37:22;;;;;;;14.55;3.00;;;14.30;99.90;;;14.31;100.00;100093.75;4917520;28;20237;-70
2022/12/31 07:40:14;;;;;;;38.35;7.78;;;14.30;99.90;;;14.21;100.00;100078.78;4944591;28;20801;-69
2022/12/31 07:42:51;;;;;;;25.33;5.30;;;14.20;99.90;;;14.24;100.00;100090.25;4937697;28;20311;-68
2022/12/31 07:45:28;;;;;;;18.98;4.07;;;14.20;99.90;;;14.30;100.00;100078.66;4950315;28;20235;-69
2022/12/31 07:47:55;;;;;;;26.15;5.38;;;14.20;99.90;;;14.39;100.00;100098.09;4933163;28;20233;-68
2022/12/31 07:50:29;;;;;;;25.90;5.10;;;14.30;99.90;;;14.39;100.00;100075.94;4933043;28;20229;-67
2022/12/31 07:52:56;;;;;;;14.45;3.22;;;14.30;99.90;;;14.33;100.00;100084.88;4929871;28;20638;-67
2022/12/31 07:55:23;;;;;;;36.70;7.75;;;14.30;99.90;;;14.29;100.00;100075.13;4947738;28;20260;-69
2022/12/31 07:58:29;;;;;;;35.03;7.30;;;14.20;99.90;;;14.41;100.00;100088.31;4947221;28;20234;-67
2022/12/31 08:00:57;;;;;;;28.10;5.90;;;14.30;99.90;;;14.59;100.00;100099.66;4948039;28;20253;-67
2022/12/31 08:04:14;;;;;;;37.25;7.38;;;14.50;99.90;;;14.50;100.00;100075.84;4933665;28;20323;-68
2022/12/31 08:07:07;;;;;;;27.33;5.47;;;14.40;99.90;;;14.47;100.00;100070.56;4953928;28;20221;-69
2022/12/31 08:10:04;;;;;;;24.95;5.00;;;14.40;99.90;;;14.30;100.00;100076.94;4942018;28;20233;-68
2022/12/31 08:12:35;;;;;;;24.70;5.30;;;14.30;99.90;;;14.33;100.00;100092.84;4939134;28;20230;-69
2022/12/31 08:15:05;;;;;;;28.40;5.93;;;14.20;99.90;;;14.26;100.00;100091.13;4932373;28;20642;-68
2022/12/31 08:17:32;;;;;;;25.20;5.18;;;14.20;99.90;;;14.22;100.00;100104.47;4948120;28;20253;-69
2022/12/31 08:20:00;;;;;;;27.45;5.95;;;14.10;99.90;;;14.23;100.00;100101.81;4934454;28;20681;-68
2022/12/31 08:22:54;;;;;;;19.63;4.07;;;14.10;99.90;;;14.30;100.00;100103.53;4933810;28;20225;-69
2022/12/31 08:25:26;;;;;;;25.70;5.45;;;14.20;99.90;;;14.41;100.00;100096.28;4946913;28;20225;-68
2022/12/31 08:28:49;;;;;;;23.80;4.85;;;14.30;99.90;;;14.42;100.00;100105.19;4932540;28;20708;-68
2022/12/31 08:31:31;;;;;;;29.95;6.38;;;14.30;99.90;;;14.40;100.00;100083.00;4942090;28;20721;-65
2022/12/31 08:34:13;;;;;;;25.48;5.10;;;14.30;99.90;;;14.48;100.00;100096.25;4946317;28;20260;-66
2022/12/31 08:37:07;;;;;;;46.50;9.25;;;14.40;99.90;;;14.59;100.00;100089.03;4932083;28;20233;-68
2022/12/31 08:40:04;;;;;;;24.98;5.07;;;14.50;99.90;;;14.58;100.00;100096.13;4906367;28;20226;-66
2022/12/31 08:43:10;;;;;;;30.48;6.22;;;14.50;99.90;;;14.76;100.00;100095.00;4940867;28;20245;-66
2022/12/31 08:45:46;;;;;;;12.30;2.47;;;14.60;99.90;;;14.89;99.46;100093.06;4926487;28;20518;-65
2022/12/31 08:48:28;;;;;;;25.85;5.55;;;14.70;99.90;;;15.00;98.23;100080.47;4939818;28;20225;-66
2022/12/31 08:50:56;;;;;;;57.53;11.75;;;14.90;99.90;;;14.85;98.17;100081.56;4943762;28;20325;-66
2022/12/31 08:53:24;;;;;;;51.75;10.88;;;14.80;99.90;;;14.86;98.58;100091.31;4924402;28;20320;-66
2022/12/31 08:56:00;;;;;;;21.75;4.60;;;14.80;99.90;;;14.83;98.82;100088.69;4934815;28;20244;-66
2022/12/31 08:59:07;;;;;;;64.22;13.25;;;14.80;99.90;;;14.83;98.62;100098.47;4901238;28;20328;-65
2022/12/31 09:02:19;;;;;;;43.50;9.80;;;14.70;99.90;;;14.74;99.76;100096.81;4938553;28;20233;-66
2022/12/31 09:05:31;;;;;;;25.02;5.40;;;14.70;99.90;;;14.79;99.76;100110.06;4950854;28;20254;-65
2022/12/31 09:08:26;;;;;;;35.90;7.97;;;14.60;99.90;;;14.87;98.79;100095.75;4918117;28;20231;-66
2022/12/31 09:11:06;;;;;;;63.00;15.13;;;14.80;99.90;;;14.86;98.26;100095.75;4920680;28;20241;-66
2022/12/31 09:13:50;;;;;;;39.85;9.35;;;14.80;99.90;;;14.87;98.54;100100.19;4921864;28;21069;-66
2022/12/31 09:16:29;;;;;;;15.93;3.45;;;14.80;99.90;;;14.89;97.78;100085.94;4938237;28;20293;-66
2022/12/31 09:19:04;;;;;;;15.35;3.22;;;14.80;99.90;;;14.80;98.22;100088.72;4940251;28;20241;-66
2022/12/31 09:21:40;;;;;;;28.25;6.25;;;14.70;99.90;;;15.21;96.20;100106.78;4941663;28;20289;-66
2022/12/31 09:24:16;;;;;;;27.90;5.82;;;14.90;99.90;;;15.67;92.13;100084.78;4926408;28;20226;-65
2022/12/31 09:27:08;;;;;;;34.85;7.40;;;15.40;99.90;;;15.64;91.01;100056.41;4921640;28;20265;-65
2022/12/31 09:29:44;;;;;;;32.13;6.68;;;15.50;99.90;;;15.59;90.86;100052.00;4935721;28;20687;-65
2022/12/31 09:32:34;;;;;;;26.08;5.63;;;15.50;99.90;;;15.89;88.71;100040.81;4942458;28;20756;-66
2022/12/31 09:35:25;;;;;;;26.00;5.53;;;15.80;99.90;;;15.93;87.59;100031.88;4963506;28;20230;-66
2022/12/31 09:38:29;;;;;;;34.20;7.38;;;15.90;99.90;;;15.80;88.46;100046.34;4938182;28;20328;-66
2022/12/31 09:41:15;;;;;;;21.02;4.43;;;15.60;99.90;;;15.92;87.41;100031.88;4941736;28;20319;-66
2022/12/31 09:44:00;;;;;;;28.05;5.82;;;15.80;99.90;;;15.99;86.72;100015.75;4945830;28;20257;-66
2022/12/31 09:46:42;;;;;;;21.92;4.45;;;15.90;99.90;;;16.03;86.41;100016.56;4954897;28;20229;-66
2022/12/31 09:49:46;;;;;;;23.85;6.28;;;15.90;99.90;;;15.93;87.38;100023.84;4941606;28;20261;-66
2022/12/31 09:52:51;;;;;;;36.35;7.95;;;15.80;99.90;;;16.09;86.22;100023.56;4920226;28;20234;-66
2022/12/31 09:55:43;;;;;;;22.38;4.65;;;15.90;99.90;;;16.11;86.25;100022.63;4944821;28;20225;-66
2022/12/31 09:58:25;;;;;;;15.77;3.55;;;16.00;99.90;;;16.18;85.37;100002.03;4948942;28;20268;-66
2022/12/31 10:01:06;;;;;;;33.20;7.20;;;16.10;99.90;;;16.10;86.36;100012.84;4943825;28;20316;-66
2022/12/31 10:04:03;;;;;;;25.90;5.63;;;16.00;99.90;;;16.16;86.44;100020.72;4938891;28;20313;-67
2022/12/31 10:07:19;;;;;;;23.90;5.35;;;16.00;99.90;;;16.21;86.65;100020.66;4944501;28;20222;-66
2022/12/31 10:10:29;;;;;;;22.67;4.68;;;16.10;99.90;;;16.47;85.33;100006.75;4924797;28;20364;-66
2022/12/31 10:13:29;;;;;;;21.42;4.28;;;16.30;99.90;;;16.23;87.10;100018.81;4917477;28;20237;-66
2022/12/31 10:16:19;;;;;;;21.40;4.75;;;16.20;99.90;;;16.09;89.32;100052.91;4908070;28;20235;-66
2022/12/31 10:19:38;;;;;;;22.50;4.68;;;16.00;99.90;;;16.04;91.10;100073.44;4921875;28;20297;-66
2022/12/31 10:22:33;;;;;;;44.22;10.15;;;15.90;99.90;;;16.05;92.01;100075.22;4929200;28;20325;-66
2022/12/31 10:26:01;;;;;;;41.42;10.15;;;15.90;99.90;;;15.86;92.74;100051.56;4935061;28;20254;-66
2022/12/31 10:28:55;;;;;;;21.33;4.28;;;15.80;99.90;;;15.80;92.83;100050.78;4942470;28;20225;-66
2022/12/31 10:31:49;;;;;;;48.03;11.30;;;15.70;99.90;;;15.78;92.89;100037.47;4929932;28;20233;-66
2022/12/31 10:34:42;;;;;;;32.90;7.35;;;15.70;99.90;;;15.91;92.31;100033.69;4938555;28;20225;-66
2022/12/31 10:37:19;;;;;;;26.88;5.90;;;15.80;99.90;;;16.04;93.02;100055.66;4932570;28;20257;-66
2022/12/31 10:40:33;;;;;;;34.28;7.68;;;15.90;99.90;;;16.30;92.15;100064.03;4918322;28;20247;-68
2022/12/31 10:43:44;;;;;;;26.55;6.10;;;16.10;99.90;;;16.27;92.41;100044.53;4927690;28;20644;-68
2022/12/31 10:46:56;;;;;;;28.38;6.05;;;16.10;99.90;;;16.43;92.33;100051.31;4932238;28;20225;-67
2022/12/31 10:50:00;;;;;;;35.70;7.90;;;16.20;99.90;;;16.49;92.16;100058.31;4942286;28;20321;-66